Fuerteventura > ESTACION METEOROLÓGICA Betancuria

DATOS ACTUALES Online

Ultima actulizacion 29 minutos

17.1 ºC

Temperatura

73

Humedad (%)

968.19

Presión (mb)

0

Precipitación (mm)

23 N

Viento (Km/h)

DATOS DIARIOS

Temperatura últimas 24 horas (ºC)

Humedad últimas 24 horas (%)

Presión atmosférica últimas 24 horas (mb)

Precipitaciones últimas 23 horas (mm)

Viento últimas 24 horas (Km/h)

Hora Temperatura (°C) ºC Precipitación (mm) mm Presión (mb) mb Humedad (%) % Viento (Km/h) km/h
28 - 23:00 16.5 0.1 969 74 22.1 N
29 - 00:00 16 0.1 969 78 19.7 N
29 - 01:00 16.1 0 969 77 18.1 N
29 - 02:00 16.5 0 969 76 12 N
29 - 03:00 16.5 0 968 76 16.6 N
29 - 04:00 16.2 0 967 73 22.7 N
29 - 05:00 15.7 0 967 73 18.8 N
29 - 06:00 15.4 0 968 75 9.7 N
29 - 07:00 15.8 0 968 74 12.7 N
29 - 08:00 17.1 0 969 73 14.7 N
29 - 09:00 18 0 969 67 16.4 NW
29 - 10:00 18.2 0 969 64 22.4 NW
29 - 11:00 19.1 0 969 62 28.2 NW
29 - 12:00 19.1 0 969 64 30.2 N
29 - 13:00 19.7 0 969 60 28.7 N
29 - 14:00 20.1 0 968 58 27.6 N
29 - 15:00 20.9 0 968 54 22 N
29 - 16:00 20 0 968 55 26.3 N
29 - 17:00 19.3 0 968 59 30.3 N
29 - 18:00 18.9 0 967 62 25.4 NW
29 - 19:00 18 0 967 66 24.4 N
29 - 20:00 17.5 0 968 68 25.5 N
29 - 21:00 17.1 0 968 70 17.1 N
29 - 22:00 17.1 0 968 73 23 N
29 - 23:00
Apalmet utiliza cookies propias y de terceros para mejorar la usabilidad y la experiencia web. Política de cookies.